createdAt,value
2017-11-08T00:02:13.590Z,96716.89
2017-11-08T00:04:44.123Z,96716.50
2017-11-08T00:07:11.707Z,96717.81
2017-11-08T00:09:39.442Z,96714.41
2017-11-08T00:12:08.343Z,96708.11
2017-11-08T00:14:35.893Z,96711.44
2017-11-08T00:17:03.472Z,96708.11
2017-11-08T00:19:31.027Z,96706.84
2017-11-08T00:22:02.542Z,96708.53
2017-11-08T00:24:30.985Z,96706.03
2017-11-08T00:26:59.234Z,96721.60
2017-11-08T00:29:26.793Z,96722.48
2017-11-08T00:31:54.349Z,96722.91
2017-11-08T00:34:21.913Z,96718.69
2017-11-08T00:36:49.457Z,96714.45
2017-11-08T00:39:17.049Z,96710.66
2017-11-08T00:41:44.601Z,96711.00
2017-11-08T00:44:12.630Z,96713.89
2017-11-08T00:46:40.221Z,96714.30
2017-11-08T00:49:07.770Z,96713.03
2017-11-08T00:51:35.336Z,96716.78
2017-11-08T00:54:02.894Z,96719.27
2017-11-08T00:56:30.813Z,96728.08
2017-11-08T00:58:58.340Z,96723.91
2017-11-08T01:01:25.909Z,96733.59
2017-11-08T01:03:53.471Z,96732.63
2017-11-08T01:06:21.014Z,96730.59
2017-11-08T01:08:48.590Z,96727.17
2017-11-08T01:11:16.142Z,96730.56
2017-11-08T01:13:43.721Z,96729.30
2017-11-08T01:16:11.277Z,96736.42
2017-11-08T01:18:38.850Z,96730.01
2017-11-08T01:21:06.405Z,96729.61
2017-11-08T01:23:33.978Z,96728.77
2017-11-08T01:26:01.558Z,96724.98
2017-11-08T01:28:29.126Z,96730.47
2017-11-08T01:30:56.706Z,96733.81
2017-11-08T01:33:24.320Z,96734.66
2017-11-08T01:35:51.888Z,96735.11
2017-11-08T01:38:21.207Z,96738.86
2017-11-08T01:40:48.788Z,96740.13
2017-11-08T01:43:16.520Z,96736.72
2017-11-08T01:45:44.469Z,96743.48
2017-11-08T01:48:15.946Z,96741.80
2017-11-08T01:50:43.509Z,96742.62
2017-11-08T01:53:11.060Z,96740.08
2017-11-08T01:55:38.630Z,96739.59
2017-11-08T01:58:06.196Z,96745.89
2017-11-08T02:00:33.751Z,96740.39
2017-11-08T02:03:01.696Z,96751.28
2017-11-08T02:05:29.251Z,96760.09
2017-11-08T02:07:56.802Z,96768.49
2017-11-08T02:10:24.365Z,96765.16
2017-11-08T02:12:52.268Z,96767.17
2017-11-08T02:15:19.838Z,96764.70
2017-11-08T02:17:53.554Z,96757.46
2017-11-08T02:20:21.200Z,96767.55
2017-11-08T02:22:48.742Z,96775.53
2017-11-08T02:25:16.279Z,96771.71
2017-11-08T02:27:44.045Z,96773.25
2017-11-08T02:30:11.657Z,96768.58
2017-11-08T02:32:45.880Z,96771.91
2017-11-08T02:35:13.425Z,96780.30
2017-11-08T02:37:41.808Z,96772.36
2017-11-08T02:40:09.366Z,96771.93
2017-11-08T02:42:37.220Z,96766.45
2017-11-08T02:45:07.338Z,96764.36
2017-11-08T02:47:34.887Z,96760.98
2017-11-08T02:50:02.461Z,96756.29
2017-11-08T02:52:30.017Z,96756.29
2017-11-08T02:55:03.563Z,96754.97
2017-11-08T02:57:31.104Z,96747.75
2017-11-08T02:59:59.022Z,96744.00
2017-11-08T03:02:30.480Z,96751.56
2017-11-08T03:07:51.499Z,96752.37
2017-11-08T03:10:19.360Z,96753.63
2017-11-08T03:12:46.922Z,96757.81
2017-11-08T03:15:14.468Z,96762.84
2017-11-08T03:17:42.025Z,96766.64
2017-11-08T03:20:09.565Z,96774.64
2017-11-08T03:22:37.472Z,96779.63
2017-11-08T03:25:05.025Z,96780.00
2017-11-08T03:27:32.559Z,96776.16
2017-11-08T03:30:00.125Z,96784.16
2017-11-08T03:32:27.681Z,96777.83
2017-11-08T03:34:55.582Z,96782.50
2017-11-08T03:37:23.112Z,96778.66
2017-11-08T03:39:50.658Z,96784.10
2017-11-08T03:42:18.232Z,96787.88
2017-11-08T03:44:45.782Z,96797.97
2017-11-08T03:47:14.106Z,96784.84
2017-11-08T03:49:41.653Z,96783.53
2017-11-08T03:52:09.539Z,96783.08
2017-11-08T03:54:37.128Z,96783.42
2017-11-08T03:57:04.677Z,96784.63
2017-11-08T03:59:32.256Z,96785.80
2017-11-08T04:01:59.816Z,96783.03
2017-11-08T04:04:27.878Z,96782.92
2017-11-08T04:06:55.433Z,96780.73
2017-11-08T04:09:22.981Z,96788.17
2017-11-08T04:11:50.630Z,96797.73
2017-11-08T04:14:18.241Z,96798.44
2017-11-08T04:16:46.160Z,96796.59
2017-11-08T04:19:13.738Z,96794.75
2017-11-08T04:21:41.307Z,96795.88
2017-11-08T04:24:08.874Z,96797.78
2017-11-08T04:26:36.422Z,96803.97
2017-11-08T04:29:04.365Z,96807.62
2017-11-08T04:31:32.041Z,96815.80
2017-11-08T04:33:59.615Z,96814.01
2017-11-08T04:36:27.214Z,96815.59
2017-11-08T04:38:54.766Z,96829.73
2017-11-08T04:41:22.992Z,96827.02
2017-11-08T04:43:50.543Z,96828.03
2017-11-08T04:46:18.386Z,96827.12
2017-11-08T04:48:45.936Z,96835.94
2017-11-08T04:51:13.521Z,96835.07
2017-11-08T04:53:41.291Z,96833.45
2017-11-08T04:56:08.877Z,96835.86
2017-11-08T04:58:36.455Z,96837.91
2017-11-08T05:01:04.075Z,96840.47
2017-11-08T05:03:31.951Z,96843.77
2017-11-08T05:05:59.507Z,96842.12
2017-11-08T05:08:27.069Z,96850.96
2017-11-08T05:10:54.640Z,96854.41
2017-11-08T05:13:22.328Z,96863.76
2017-11-08T05:15:50.269Z,96865.05
2017-11-08T05:18:17.818Z,96864.58
2017-11-08T05:20:45.773Z,96862.57
2017-11-08T05:23:13.424Z,96869.80
2017-11-08T05:25:40.980Z,96857.72
2017-11-08T05:28:08.569Z,96852.28
2017-11-08T05:30:36.123Z,96850.73
2017-11-08T05:33:03.660Z,96848.69
2017-11-08T05:35:31.213Z,96855.88
2017-11-08T05:37:58.786Z,96865.11
2017-11-08T05:40:26.439Z,96868.89
2017-11-08T05:42:54.010Z,96865.01
2017-11-08T05:45:21.881Z,96866.27
2017-11-08T05:47:49.416Z,96865.01
2017-11-08T05:50:16.947Z,96857.03
2017-11-08T05:52:44.505Z,96868.03
2017-11-08T05:55:12.105Z,96862.95
2017-11-08T05:57:39.687Z,96865.15
2017-11-08T06:00:07.335Z,96868.96
2017-11-08T06:02:34.885Z,96869.39
2017-11-08T06:05:02.761Z,96874.46
2017-11-08T06:07:30.303Z,96874.92
2017-11-08T06:09:57.835Z,96874.46
2017-11-08T06:12:25.420Z,96874.39
2017-11-08T06:14:52.961Z,96877.73
2017-11-08T06:17:20.540Z,96878.63
2017-11-08T06:19:48.093Z,96884.89
2017-11-08T06:22:15.830Z,96889.03
2017-11-08T06:24:43.387Z,96881.48
2017-11-08T06:27:10.944Z,96878.45
2017-11-08T06:29:38.642Z,96885.97
2017-11-08T06:32:06.211Z,96883.20
2017-11-08T06:34:33.896Z,96881.80
2017-11-08T06:37:01.483Z,96886.77
2017-11-08T06:39:29.154Z,96883.31
2017-11-08T06:41:56.739Z,96884.53
2017-11-08T06:44:24.350Z,96880.33
2017-11-08T06:46:51.935Z,96887.05
2017-11-08T06:49:19.497Z,96886.66
2017-11-08T06:51:47.125Z,96889.53
2017-11-08T06:54:14.699Z,96891.97
2017-11-08T06:56:43.069Z,96895.28
2017-11-08T06:59:10.622Z,96886.00
2017-11-08T07:01:38.173Z,96901.64
2017-11-08T07:04:06.164Z,96911.67
2017-11-08T07:06:36.144Z,96910.26
2017-11-08T07:09:03.700Z,96917.73
2017-11-08T07:11:32.229Z,96921.58
2017-11-08T07:14:00.738Z,96923.81
2017-11-08T07:16:28.652Z,96926.77
2017-11-08T07:18:56.213Z,96926.02
2017-11-08T07:21:23.816Z,96928.17
2017-11-08T07:23:51.360Z,96931.55
2017-11-08T07:26:18.924Z,96929.55
2017-11-08T07:28:46.610Z,96932.42
2017-11-08T07:31:14.166Z,96941.27
2017-11-08T07:33:41.774Z,96933.75
2017-11-08T07:36:09.332Z,96938.35
2017-11-08T07:38:36.906Z,96945.98
2017-11-08T07:41:04.477Z,96940.36
2017-11-08T07:43:32.066Z,96947.98
2017-11-08T07:45:59.784Z,96949.79
2017-11-08T07:48:27.343Z,96947.78
2017-11-08T07:50:55.062Z,96951.16
2017-11-08T07:53:26.448Z,96957.95
2017-11-08T07:56:01.136Z,96959.00
2017-11-08T07:58:28.700Z,96951.09
2017-11-08T08:00:56.316Z,96947.00
2017-11-08T08:03:23.871Z,96955.99
2017-11-08T08:05:51.457Z,96954.88
2017-11-08T08:08:19.039Z,96953.41
2017-11-08T08:10:46.589Z,96948.58
2017-11-08T08:13:14.151Z,96948.22
2017-11-08T08:15:41.702Z,96943.78
2017-11-08T08:18:09.632Z,96951.95
2017-11-08T08:20:37.184Z,96955.83
2017-11-08T08:23:04.731Z,96949.27
2017-11-08T08:25:32.304Z,96955.94
2017-11-08T08:27:59.853Z,96954.21
2017-11-08T08:30:27.432Z,96958.09
2017-11-08T08:32:54.990Z,96947.75
2017-11-08T08:35:22.564Z,96943.02
2017-11-08T08:37:50.108Z,96945.89
2017-11-08T08:40:17.703Z,96944.83
2017-11-08T08:42:45.242Z,96938.68
2017-11-08T08:45:12.808Z,96938.00
2017-11-08T08:47:40.384Z,96948.09
2017-11-08T08:50:08.067Z,96954.03
2017-11-08T08:52:35.612Z,96961.81
2017-11-08T08:55:03.167Z,96962.03
2017-11-08T08:57:31.108Z,96965.20
2017-11-08T08:59:58.688Z,96963.50
2017-11-08T09:02:32.076Z,96966.18
2017-11-08T09:04:59.648Z,96966.00
2017-11-08T09:07:27.201Z,96959.23
2017-11-08T09:09:54.759Z,96964.80
2017-11-08T09:12:22.300Z,96965.78
2017-11-08T09:14:49.881Z,96964.95
2017-11-08T09:17:18.924Z,96960.82
2017-11-08T09:19:46.499Z,96962.17
2017-11-08T09:22:14.451Z,96963.89
2017-11-08T09:24:49.635Z,96961.48
2017-11-08T09:27:17.301Z,96969.23
2017-11-08T09:29:46.645Z,96970.09
2017-11-08T09:32:14.373Z,96971.30
2017-11-08T09:34:46.748Z,96971.81
2017-11-08T09:37:14.329Z,96968.14
2017-11-08T09:39:41.861Z,96970.72
2017-11-08T09:42:10.537Z,96965.30
2017-11-08T09:44:38.213Z,96957.32
2017-11-08T09:47:09.069Z,96958.23
2017-11-08T09:49:36.623Z,96956.17
2017-11-08T09:52:04.160Z,96950.80
2017-11-08T09:54:31.727Z,96950.13
2017-11-08T09:56:59.493Z,96952.47
2017-11-08T09:59:27.492Z,96952.19
2017-11-08T10:01:55.045Z,96949.26
2017-11-08T10:04:22.716Z,96951.86
2017-11-08T10:06:50.416Z,96950.67
2017-11-08T10:09:22.831Z,96949.39
2017-11-08T10:11:53.189Z,96951.91
2017-11-08T10:14:20.759Z,96953.76
2017-11-08T10:16:49.111Z,96947.14
2017-11-08T10:19:16.656Z,96949.27
2017-11-08T10:21:45.865Z,96943.30
2017-11-08T10:24:13.415Z,96944.14
2017-11-08T10:26:40.961Z,96941.18
2017-11-08T10:29:08.538Z,96945.43
2017-11-08T10:31:36.092Z,96955.58
2017-11-08T10:34:03.661Z,96955.94
2017-11-08T10:36:31.221Z,96951.77
2017-11-08T10:38:58.796Z,96955.20
2017-11-08T10:41:26.339Z,96959.15
2017-11-08T10:43:53.888Z,96958.34
2017-11-08T10:46:21.462Z,96963.81
2017-11-08T10:48:50.817Z,96961.79
2017-11-08T10:51:19.154Z,96962.66
2017-11-08T10:53:51.581Z,96966.48
2017-11-08T10:56:19.176Z,96962.79
2017-11-08T10:58:46.735Z,96967.83
2017-11-08T11:01:21.761Z,96974.61
2017-11-08T11:03:52.153Z,96971.62
2017-11-08T11:06:20.204Z,96973.36
2017-11-08T11:08:47.737Z,96972.15
2017-11-08T11:11:15.275Z,96972.27
2017-11-08T11:13:47.738Z,96970.69
2017-11-08T11:16:16.753Z,96967.30
2017-11-08T11:18:44.654Z,96968.54
2017-11-08T11:21:13.082Z,96968.54
2017-11-08T11:23:49.130Z,96971.97
2017-11-08T11:26:16.695Z,96969.13
2017-11-08T11:28:44.246Z,96974.66
2017-11-08T11:31:11.811Z,96979.42
2017-11-08T11:33:39.353Z,96972.70
2017-11-08T11:36:06.921Z,96968.56
2017-11-08T11:38:37.352Z,96967.77
2017-11-08T11:41:05.198Z,96969.01
2017-11-08T11:43:32.963Z,96972.02
2017-11-08T11:46:00.564Z,96973.73
2017-11-08T11:48:32.337Z,96979.72
2017-11-08T11:51:05.501Z,96981.70
2017-11-08T11:53:33.094Z,96984.63
2017-11-08T11:56:00.648Z,97001.72
2017-11-08T11:58:28.193Z,96998.53
2017-11-08T12:00:55.878Z,96998.14
2017-11-08T12:03:23.396Z,97001.10
2017-11-08T12:05:50.951Z,96999.38
2017-11-08T12:08:18.491Z,96999.81
2017-11-08T12:10:46.438Z,96988.84
2017-11-08T12:13:13.988Z,96994.33
2017-11-08T12:15:41.538Z,96985.88
2017-11-08T12:18:09.237Z,96987.96
2017-11-08T12:20:36.792Z,96985.00
2017-11-08T12:23:04.334Z,96984.98
2017-11-08T12:25:31.853Z,96987.45
2017-11-08T12:27:59.431Z,96984.92
2017-11-08T12:30:26.980Z,96983.66
2017-11-08T12:32:54.537Z,96974.78
2017-11-08T12:35:24.657Z,96963.45
2017-11-08T12:37:52.199Z,96963.03
2017-11-08T12:40:21.610Z,96960.14
2017-11-08T12:42:49.981Z,96955.10
2017-11-08T12:45:17.530Z,96954.25
2017-11-08T12:47:45.114Z,96964.36
2017-11-08T12:50:12.734Z,96977.47
2017-11-08T12:52:40.334Z,96988.00
2017-11-08T12:55:07.970Z,96993.09
2017-11-08T12:57:37.460Z,97001.58
2017-11-08T13:00:05.007Z,97013.30
2017-11-08T13:02:32.582Z,96998.91
2017-11-08T13:05:01.086Z,96996.86
2017-11-08T13:07:28.623Z,96982.16
2017-11-08T13:09:56.187Z,96981.34
2017-11-08T13:12:23.731Z,96978.03
2017-11-08T13:14:51.346Z,96979.67
2017-11-08T13:17:18.989Z,96981.34
2017-11-08T13:19:46.956Z,96979.27
2017-11-08T13:22:14.555Z,96987.28
2017-11-08T13:24:42.122Z,96991.41
2017-11-08T13:27:09.705Z,96992.61
2017-11-08T13:29:37.330Z,97002.27
2017-11-08T13:32:04.885Z,96996.73
2017-11-08T13:34:32.601Z,97006.70
2017-11-08T13:37:00.150Z,97006.30
2017-11-08T13:39:28.483Z,97001.22
2017-11-08T13:41:56.146Z,97009.26
2017-11-08T13:44:23.694Z,97015.58
2017-11-08T13:46:51.235Z,97018.08
2017-11-08T13:49:18.964Z,97018.13
2017-11-08T13:51:46.524Z,97011.81
2017-11-08T13:54:14.072Z,97017.66
2017-11-08T13:56:41.646Z,97019.32
2017-11-08T13:59:09.198Z,97025.59
2017-11-08T14:01:36.763Z,97028.13
2017-11-08T14:04:07.135Z,97024.30
2017-11-08T14:06:35.226Z,97028.53
2017-11-08T14:09:02.782Z,97027.26
2017-11-08T14:11:30.316Z,97037.34
2017-11-08T14:13:57.914Z,97036.52
2017-11-08T14:16:25.460Z,97035.66
2017-11-08T14:18:53.045Z,97036.46
2017-11-08T14:21:20.607Z,97042.81
2017-11-08T14:23:48.555Z,97042.36
2017-11-08T14:26:16.114Z,97043.14
2017-11-08T14:28:43.653Z,97041.88
2017-11-08T14:31:11.212Z,97047.36
2017-11-08T14:33:41.590Z,97042.68
2017-11-08T14:36:09.360Z,97043.52
2017-11-08T14:38:36.907Z,97043.49
2017-11-08T14:41:04.491Z,97045.56
2017-11-08T14:43:32.080Z,97045.10
2017-11-08T14:45:59.628Z,97047.16
2017-11-08T14:48:27.313Z,97049.63
2017-11-08T14:50:54.856Z,97057.98
2017-11-08T14:53:23.575Z,97063.79
2017-11-08T14:55:51.134Z,97066.30
2017-11-08T14:58:18.668Z,97060.78
2017-11-08T15:00:46.320Z,97062.48
2017-11-08T15:03:14.353Z,97051.94
2017-11-08T15:05:41.910Z,97051.87
2017-11-08T15:08:09.462Z,97050.56
2017-11-08T15:10:37.410Z,97056.88
2017-11-08T15:13:04.955Z,97058.09
2017-11-08T15:15:32.517Z,97058.92
2017-11-08T15:18:00.118Z,97056.77
2017-11-08T15:20:29.505Z,97060.98
2017-11-08T15:22:57.232Z,97062.22
2017-11-08T15:25:24.846Z,97068.51
2017-11-08T15:27:52.483Z,97070.17
2017-11-08T15:30:26.818Z,97070.55
2017-11-08T15:35:28.340Z,97073.45
2017-11-08T15:37:56.351Z,97071.78
2017-11-08T15:40:24.710Z,97074.66
2017-11-08T15:42:52.424Z,97077.98
2017-11-08T15:45:20.020Z,97064.95
2017-11-08T15:47:47.574Z,97064.92
2017-11-08T15:50:15.160Z,97064.50
2017-11-08T15:52:42.744Z,97066.99
2017-11-08T15:55:10.900Z,97073.59
2017-11-08T15:57:38.497Z,97075.66
2017-11-08T16:00:06.512Z,97086.19
2017-11-08T16:02:34.078Z,97082.41
2017-11-08T16:05:01.629Z,97087.89
2017-11-08T16:07:29.693Z,97089.98
2017-11-08T16:09:57.892Z,97088.69
2017-11-08T16:12:25.480Z,97083.61
2017-11-08T16:17:27.201Z,97086.59
2017-11-08T16:19:54.775Z,97089.52
2017-11-08T16:22:22.340Z,97091.62
2017-11-08T16:24:49.934Z,97085.30
2017-11-08T16:27:17.511Z,97087.37
2017-11-08T16:29:45.119Z,97097.47
2017-11-08T16:32:21.234Z,97103.35
2017-11-08T16:34:49.009Z,97101.26
2017-11-08T16:37:16.673Z,97102.95
2017-11-08T16:39:44.264Z,97109.70
2017-11-08T16:42:11.832Z,97116.38
2017-11-08T16:44:39.405Z,97111.33
2017-11-08T16:47:08.415Z,97104.55
2017-11-08T16:49:36.071Z,97105.84
2017-11-08T16:52:03.640Z,97107.11
2017-11-08T16:54:31.208Z,97101.66
2017-11-08T16:56:58.818Z,97109.58
2017-11-08T16:59:26.395Z,97108.74
2017-11-08T17:01:54.605Z,97109.11
2017-11-08T17:04:22.183Z,97112.91
2017-11-08T17:06:49.740Z,97111.61
2017-11-08T17:09:17.313Z,97108.25
2017-11-08T17:11:44.860Z,97104.47
2017-11-08T17:14:12.445Z,97106.55
2017-11-08T17:16:40.183Z,97112.04
2017-11-08T17:19:07.762Z,97114.59
2017-11-08T17:21:35.396Z,97111.20
2017-11-08T17:24:02.965Z,97119.22
2017-11-08T17:26:30.531Z,97117.52
2017-11-08T17:28:58.083Z,97124.67
2017-11-08T17:31:25.689Z,97129.69
2017-11-08T17:33:53.277Z,97130.91
2017-11-08T17:36:20.861Z,97133.44
2017-11-08T17:38:48.433Z,97139.33
2017-11-08T17:41:16.020Z,97137.59
2017-11-08T17:43:43.668Z,97141.75
2017-11-08T17:46:11.240Z,97133.75
2017-11-08T17:48:38.875Z,97140.49
2017-11-08T17:51:06.455Z,97132.45
2017-11-08T17:53:34.041Z,97137.04
2017-11-08T17:56:01.763Z,97137.84
2017-11-08T17:58:29.577Z,97137.41
2017-11-08T18:00:57.243Z,97133.63
2017-11-08T18:03:24.819Z,97130.23
2017-11-08T18:05:52.448Z,97134.42
2017-11-08T18:08:20.026Z,97131.06
2017-11-08T18:10:47.592Z,97137.78
2017-11-08T18:13:15.174Z,97132.70
2017-11-08T18:15:42.750Z,97134.30
2017-11-08T18:18:10.416Z,97134.27
2017-11-08T18:20:37.980Z,97141.38
2017-11-08T18:23:05.922Z,97142.64
2017-11-08T18:25:33.698Z,97143.03
2017-11-08T18:28:01.290Z,97143.44
2017-11-08T18:30:28.984Z,97144.63
2017-11-08T18:32:56.718Z,97139.95
2017-11-08T18:35:24.521Z,97137.86
2017-11-08T18:37:52.093Z,97143.73
2017-11-08T18:40:19.695Z,97149.98
2017-11-08T18:42:47.327Z,97149.55
2017-11-08T18:45:14.988Z,97157.05
2017-11-08T18:47:42.624Z,97156.16
2017-11-08T18:50:10.287Z,97155.33
2017-11-08T18:52:38.037Z,97155.76
2017-11-08T18:55:05.628Z,97156.16
2017-11-08T18:57:33.241Z,97153.13
2017-11-08T19:00:00.898Z,97156.48
2017-11-08T19:02:32.354Z,97161.50
2017-11-08T19:05:00.551Z,97169.00
2017-11-08T19:07:28.181Z,97169.41
2017-11-08T19:09:56.031Z,97168.14
2017-11-08T19:12:23.656Z,97173.66
2017-11-08T19:14:52.242Z,97171.92
2017-11-08T19:17:20.116Z,97171.86
2017-11-08T19:19:47.863Z,97170.50
2017-11-08T19:22:15.762Z,97175.94
2017-11-08T19:24:43.542Z,97173.81
2017-11-08T19:27:11.265Z,97172.58
2017-11-08T19:29:39.333Z,97174.17
2017-11-08T19:32:07.187Z,97167.80
2017-11-08T19:34:35.483Z,97176.98
2017-11-08T19:37:04.252Z,97166.90
2017-11-08T19:39:32.041Z,97173.10
2017-11-08T19:41:59.824Z,97180.31
2017-11-08T19:44:27.567Z,97176.89
2017-11-08T19:46:55.793Z,97173.93
2017-11-08T19:49:23.683Z,97179.41
2017-11-08T19:51:51.442Z,97172.59
2017-11-08T19:54:20.156Z,97178.55
2017-11-08T19:56:47.951Z,97178.11
2017-11-08T19:59:16.438Z,97182.26
2017-11-08T20:01:44.285Z,97181.00
2017-11-08T20:04:12.121Z,97188.20
2017-11-08T20:06:40.094Z,97188.20
2017-11-08T20:09:07.880Z,97188.60
2017-11-08T20:11:35.753Z,97188.60
2017-11-08T20:14:03.607Z,97194.05
2017-11-08T20:16:31.409Z,97186.51
2017-11-08T20:18:59.304Z,97193.68
2017-11-08T20:21:27.099Z,97192.81
2017-11-08T20:23:55.085Z,97194.08
2017-11-08T20:26:22.941Z,97198.69
2017-11-08T20:28:50.794Z,97199.98
2017-11-08T20:31:18.791Z,97201.28
2017-11-08T20:33:46.711Z,97206.77
2017-11-08T20:36:14.529Z,97205.10
2017-11-08T20:38:42.490Z,97210.19
2017-11-08T20:41:10.299Z,97213.17
2017-11-08T20:43:38.322Z,97209.83
2017-11-08T20:46:06.203Z,97206.91
2017-11-08T20:48:34.068Z,97210.66
2017-11-08T20:51:02.027Z,97219.98
2017-11-08T20:53:29.776Z,97216.13
2017-11-08T20:55:57.737Z,97224.13
2017-11-08T20:58:25.529Z,97227.92
2017-11-08T21:00:53.257Z,97224.92
2017-11-08T21:03:21.045Z,97227.05
2017-11-08T21:05:48.769Z,97224.13
2017-11-08T21:08:16.518Z,97232.13
2017-11-08T21:10:44.247Z,97221.64
2017-11-08T21:13:12.068Z,97224.96
2017-11-08T21:15:39.758Z,97224.56
2017-11-08T21:18:07.791Z,97221.17
2017-11-08T21:20:35.441Z,97223.59
2017-11-08T21:23:03.090Z,97221.07
2017-11-08T21:25:30.766Z,97226.91
2017-11-08T21:27:58.417Z,97222.19
2017-11-08T21:30:26.256Z,97224.34
2017-11-08T21:32:53.855Z,97228.56
2017-11-08T21:35:21.486Z,97228.14
2017-11-08T21:37:49.112Z,97228.17
2017-11-08T21:40:16.756Z,97230.30
2017-11-08T21:42:44.420Z,97232.81
2017-11-08T21:45:12.005Z,97229.86
2017-11-08T21:47:39.630Z,97227.81
2017-11-08T21:50:07.217Z,97227.37
2017-11-08T21:52:35.030Z,97234.08
2017-11-08T21:55:02.606Z,97234.08
2017-11-08T21:57:30.186Z,97238.70
2017-11-08T21:59:57.809Z,97239.12
2017-11-08T22:02:25.374Z,97239.09
2017-11-08T22:04:53.123Z,97238.66
2017-11-08T22:07:20.691Z,97244.49
2017-11-08T22:09:48.636Z,97243.59
2017-11-08T22:12:16.203Z,97251.13
2017-11-08T22:14:43.789Z,97252.74
2017-11-08T22:17:11.580Z,97256.48
2017-11-08T22:19:39.148Z,97254.00
2017-11-08T22:22:06.737Z,97250.22
2017-11-08T22:24:39.150Z,97251.45
2017-11-08T22:27:06.756Z,97255.22
2017-11-08T22:29:34.317Z,97257.31
2017-11-08T22:32:01.937Z,97254.72
2017-11-08T22:34:38.664Z,97260.55
2017-11-08T22:37:06.258Z,97260.98
2017-11-08T22:39:33.834Z,97256.77
2017-11-08T22:42:01.415Z,97260.16
2017-11-08T22:44:29.065Z,97257.59
2017-11-08T22:46:56.645Z,97260.98
2017-11-08T22:49:24.246Z,97259.30
2017-11-08T22:51:51.786Z,97262.68
2017-11-08T22:54:19.383Z,97272.77
2017-11-08T22:56:46.945Z,97269.02
2017-11-08T22:59:14.541Z,97270.28
2017-11-08T23:01:42.149Z,97268.20
2017-11-08T23:06:43.469Z,97267.73
2017-11-08T23:09:11.041Z,97264.34
2017-11-08T23:11:38.613Z,97268.52
2017-11-08T23:14:06.181Z,97272.30
2017-11-08T23:16:33.768Z,97268.55
2017-11-08T23:19:01.322Z,97272.30
2017-11-08T23:21:28.882Z,97272.30
2017-11-08T23:23:56.473Z,97266.83
2017-11-08T23:26:24.067Z,97268.44
2017-11-08T23:28:51.655Z,97267.11
2017-11-08T23:31:19.293Z,97266.20
2017-11-08T23:33:47.170Z,97270.41
2017-11-08T23:36:14.725Z,97271.20
2017-11-08T23:38:42.273Z,97264.03
2017-11-08T23:41:09.899Z,97267.46
2017-11-08T23:43:37.461Z,97271.67
2017-11-08T23:46:05.058Z,97270.81
2017-11-08T23:48:32.631Z,97274.95
2017-11-08T23:51:00.224Z,97270.30
2017-11-08T23:53:27.780Z,97270.77
2017-11-08T23:55:55.357Z,97269.94
2017-11-08T23:58:23.086Z,97274.13
